createdAt,value
2023-04-14T00:01:56.552Z,9.32
2023-04-14T00:04:24.857Z,10.77
2023-04-14T00:06:53.458Z,9.07
2023-04-14T00:09:21.472Z,9.70
2023-04-14T00:11:50.749Z,7.85
2023-04-14T00:14:19.033Z,7.55
2023-04-14T00:16:47.426Z,10.18
2023-04-14T00:19:17.381Z,8.10
2023-04-14T00:21:45.480Z,11.25
2023-04-14T00:24:13.501Z,5.85
2023-04-14T00:26:42.024Z,7.25
2023-04-14T00:29:10.409Z,8.20
2023-04-14T00:31:38.676Z,7.97
2023-04-14T00:34:06.765Z,7.07
2023-04-14T00:36:36.965Z,7.63
2023-04-14T00:39:05.770Z,6.25
2023-04-14T00:41:35.102Z,10.98
2023-04-14T00:44:03.134Z,3.42
2023-04-14T00:46:31.953Z,6.25
2023-04-14T00:49:00.615Z,8.13
2023-04-14T00:51:29.170Z,5.40
2023-04-14T00:53:59.816Z,4.75
2023-04-14T00:56:29.457Z,4.38
2023-04-14T00:58:57.515Z,5.18
2023-04-14T01:01:27.165Z,6.00
2023-04-14T01:03:56.876Z,3.67
2023-04-14T01:06:25.124Z,5.10
2023-04-14T01:08:53.349Z,3.15
2023-04-14T01:11:31.873Z,6.47
2023-04-14T01:14:10.050Z,4.50
2023-04-14T01:16:41.523Z,3.95
2023-04-14T01:19:30.993Z,9.35
2023-04-14T01:22:04.769Z,4.93
2023-04-14T01:24:59.282Z,6.40
2023-04-14T01:27:41.818Z,7.53
2023-04-14T01:30:30.647Z,4.65
2023-04-14T01:33:04.818Z,4.72
2023-04-14T01:35:38.092Z,2.65
2023-04-14T01:38:12.236Z,3.30
2023-04-14T01:40:43.469Z,3.72
2023-04-14T01:43:14.584Z,3.20
2023-04-14T01:45:50.398Z,3.95
2023-04-14T01:48:20.531Z,3.55
2023-04-14T01:50:50.147Z,3.53
2023-04-14T01:53:20.736Z,8.55
2023-04-14T01:55:50.708Z,3.03
2023-04-14T01:58:22.001Z,3.53
2023-04-14T02:00:52.871Z,3.35
2023-04-14T02:03:24.422Z,3.42
2023-04-14T02:05:55.570Z,3.25
2023-04-14T02:08:25.909Z,3.20
2023-04-14T02:10:56.236Z,3.90
2023-04-14T02:13:27.261Z,3.90
2023-04-14T02:15:58.742Z,3.08
2023-04-14T02:18:29.650Z,3.05
2023-04-14T02:21:00.743Z,4.53
2023-04-14T02:23:28.944Z,3.70
2023-04-14T02:26:13.207Z,4.95
2023-04-14T02:28:50.718Z,4.15
2023-04-14T02:31:23.978Z,3.65
2023-04-14T02:33:56.965Z,3.08
2023-04-14T02:36:32.518Z,3.08
2023-04-14T02:39:05.671Z,5.80
2023-04-14T02:41:35.789Z,3.50
2023-04-14T02:44:09.855Z,3.35
2023-04-14T02:46:42.798Z,3.10
2023-04-14T02:49:16.307Z,3.35
2023-04-14T02:51:46.766Z,3.08
2023-04-14T02:54:19.199Z,3.40
2023-04-14T02:56:50.070Z,3.25
2023-04-14T02:59:23.198Z,5.45
2023-04-14T03:01:59.854Z,5.72
2023-04-14T03:04:30.621Z,3.47
2023-04-14T03:07:00.583Z,4.07
2023-04-14T03:09:30.708Z,10.82
2023-04-14T03:12:00.692Z,2.47
2023-04-14T03:14:32.479Z,3.53
2023-04-14T03:17:02.164Z,5.72
2023-04-14T03:19:33.184Z,5.43
2023-04-14T03:22:03.913Z,3.78
2023-04-14T03:24:35.372Z,3.35
2023-04-14T03:27:06.517Z,3.33
2023-04-14T03:29:40.006Z,4.75
2023-04-14T03:32:11.605Z,2.85
2023-04-14T03:34:46.575Z,2.28
2023-04-14T03:37:19.280Z,5.35
2023-04-14T03:39:51.114Z,4.82
2023-04-14T03:42:21.155Z,4.68
2023-04-14T03:44:54.313Z,6.97
2023-04-14T03:47:24.528Z,7.75
2023-04-14T03:49:57.966Z,4.35
2023-04-14T03:52:30.453Z,4.43
2023-04-14T03:55:04.088Z,2.95
2023-04-14T03:57:33.501Z,4.30
2023-04-14T04:00:05.473Z,5.22
2023-04-14T04:02:42.495Z,4.22
2023-04-14T04:05:13.729Z,3.28
2023-04-14T04:07:43.298Z,5.20
2023-04-14T04:10:14.410Z,4.60
2023-04-14T04:12:44.074Z,4.55
2023-04-14T04:15:13.327Z,4.30
2023-04-14T04:17:44.363Z,4.70
2023-04-14T04:20:16.762Z,4.00
2023-04-14T04:22:49.852Z,3.17
2023-04-14T04:25:19.089Z,4.85
2023-04-14T04:27:55.724Z,5.95
2023-04-14T04:30:26.293Z,4.43
2023-04-14T04:32:54.894Z,5.30
2023-04-14T04:35:25.872Z,5.35
2023-04-14T04:37:55.524Z,7.65
2023-04-14T04:40:23.855Z,6.63
2023-04-14T04:42:53.388Z,7.53
2023-04-14T04:45:45.492Z,7.68
2023-04-14T04:48:14.263Z,6.32
2023-04-14T04:50:46.773Z,4.13
2023-04-14T04:53:15.069Z,3.78
2023-04-14T04:55:43.852Z,5.10
2023-04-14T04:58:12.110Z,4.50
2023-04-14T05:00:40.602Z,9.50
2023-04-14T05:03:09.206Z,4.45
2023-04-14T05:05:37.552Z,6.13
2023-04-14T05:08:07.950Z,4.38
2023-04-14T05:10:37.155Z,9.15
2023-04-14T05:13:05.627Z,6.80
2023-04-14T05:15:34.334Z,7.78
2023-04-14T05:18:03.020Z,3.95
2023-04-14T05:20:31.631Z,6.53
2023-04-14T05:23:00.790Z,4.88
2023-04-14T05:25:30.450Z,5.65
2023-04-14T05:27:58.874Z,6.20
2023-04-14T05:30:27.660Z,5.38
2023-04-14T05:32:56.208Z,5.63
2023-04-14T05:35:25.666Z,4.80
2023-04-14T05:37:53.982Z,6.57
2023-04-14T05:40:22.701Z,6.00
2023-04-14T05:42:53.609Z,6.70
2023-04-14T05:45:23.100Z,9.77
2023-04-14T05:47:51.528Z,4.38
2023-04-14T05:50:19.980Z,4.97
2023-04-14T05:52:48.195Z,7.57
2023-04-14T05:55:16.727Z,7.80
2023-04-14T05:57:45.304Z,9.88
2023-04-14T06:00:15.938Z,7.07
2023-04-14T06:02:45.063Z,9.77
2023-04-14T06:05:14.242Z,6.35
2023-04-14T06:07:43.317Z,8.50
2023-04-14T06:10:13.840Z,9.00
2023-04-14T06:12:42.291Z,9.68
2023-04-14T06:15:10.919Z,9.50
2023-04-14T06:17:42.015Z,11.75
2023-04-14T06:20:12.256Z,5.38
2023-04-14T06:22:40.616Z,6.28
2023-04-14T06:25:11.231Z,10.68
2023-04-14T06:27:39.919Z,11.93
2023-04-14T06:30:10.823Z,12.00
2023-04-14T06:32:40.906Z,12.38
2023-04-14T06:35:16.451Z,9.13
2023-04-14T06:37:51.767Z,9.27
2023-04-14T06:40:20.507Z,9.50
2023-04-14T06:42:48.554Z,10.98
2023-04-14T06:45:17.270Z,9.45
2023-04-14T06:47:47.277Z,11.10
2023-04-14T06:50:15.607Z,8.95
2023-04-14T06:53:09.547Z,9.75
2023-04-14T06:55:42.328Z,15.35
2023-04-14T06:58:10.442Z,10.02
2023-04-14T07:00:38.942Z,9.70
2023-04-14T07:03:29.087Z,12.98
2023-04-14T07:06:04.016Z,9.65
2023-04-14T07:08:34.881Z,8.38
2023-04-14T07:11:04.409Z,11.18
2023-04-14T07:13:33.800Z,9.02
2023-04-14T07:16:02.401Z,11.15
2023-04-14T07:18:33.071Z,8.07
2023-04-14T07:21:01.689Z,9.18
2023-04-14T07:23:30.152Z,10.75
2023-04-14T07:26:00.035Z,15.75
2023-04-14T07:28:29.556Z,9.45
2023-04-14T07:30:57.955Z,12.65
2023-04-14T07:33:27.178Z,8.70
2023-04-14T07:36:02.083Z,7.78
2023-04-14T07:38:32.461Z,12.02
2023-04-14T07:41:01.384Z,7.95
2023-04-14T07:43:35.139Z,9.80
2023-04-14T07:46:05.753Z,9.70
2023-04-14T07:48:35.344Z,10.07
2023-04-14T07:51:06.918Z,10.88
2023-04-14T07:53:40.734Z,10.82
2023-04-14T07:56:09.680Z,10.50
2023-04-14T07:58:38.265Z,7.32
2023-04-14T08:01:06.568Z,7.03
2023-04-14T08:03:36.597Z,8.63
2023-04-14T08:06:08.506Z,11.10
2023-04-14T08:08:37.293Z,9.38
2023-04-14T08:11:07.313Z,10.05
2023-04-14T08:13:35.778Z,9.90
2023-04-14T08:16:04.704Z,7.70
2023-04-14T08:18:32.956Z,8.07
2023-04-14T08:21:01.440Z,7.78
2023-04-14T08:23:31.711Z,7.38
2023-04-14T08:26:00.237Z,7.30
2023-04-14T08:28:31.277Z,9.30
2023-04-14T08:31:00.148Z,11.40
2023-04-14T08:33:28.804Z,12.18
2023-04-14T08:36:00.412Z,7.97
2023-04-14T08:38:29.417Z,9.35
2023-04-14T08:41:02.090Z,6.97
2023-04-14T08:43:31.117Z,6.97
2023-04-14T08:46:03.195Z,8.90
2023-04-14T08:48:33.144Z,6.60
2023-04-14T08:51:07.890Z,8.35
2023-04-14T08:53:43.830Z,8.73
2023-04-14T08:56:17.406Z,7.65
2023-04-14T08:58:47.437Z,7.65
2023-04-14T09:01:16.792Z,9.00
2023-04-14T09:03:46.046Z,9.07
2023-04-14T09:06:15.323Z,6.15
2023-04-14T09:08:44.648Z,8.88
2023-04-14T09:11:17.052Z,6.97
2023-04-14T09:13:46.228Z,6.45
2023-04-14T09:16:15.205Z,8.40
2023-04-14T09:18:43.803Z,7.40
2023-04-14T09:21:50.569Z,6.63
2023-04-14T09:24:07.305Z,7.53
2023-04-14T09:26:37.816Z,5.85
2023-04-14T09:29:06.226Z,6.50
2023-04-14T09:31:34.994Z,5.75
2023-04-14T09:34:03.976Z,7.30
2023-04-14T09:36:32.776Z,5.68
2023-04-14T09:39:01.068Z,5.63
2023-04-14T09:41:29.519Z,7.57
2023-04-14T09:44:08.337Z,5.20
2023-04-14T09:46:36.768Z,6.85
2023-04-14T09:49:07.209Z,7.68
2023-04-14T09:51:36.066Z,5.70
2023-04-14T09:54:07.049Z,5.97
2023-04-14T09:56:36.774Z,8.05
2023-04-14T09:59:07.741Z,6.93
2023-04-14T10:01:36.966Z,5.15
2023-04-14T10:04:05.222Z,6.63
2023-04-14T10:06:33.978Z,5.00
2023-04-14T10:09:04.198Z,5.15
2023-04-14T10:11:33.777Z,6.47
2023-04-14T10:14:04.203Z,5.95
2023-04-14T10:16:35.006Z,5.70
2023-04-14T10:19:04.788Z,6.65
2023-04-14T10:21:34.242Z,5.05
2023-04-14T10:24:03.447Z,5.00
2023-04-14T10:26:32.513Z,6.70
2023-04-14T10:29:02.599Z,5.00
2023-04-14T10:31:36.518Z,4.72
2023-04-14T10:34:11.150Z,6.80
2023-04-14T10:36:50.271Z,4.97
2023-04-14T10:39:25.316Z,4.75
2023-04-14T10:41:58.955Z,4.47
2023-04-14T10:44:35.399Z,4.65
2023-04-14T10:47:08.884Z,5.25
2023-04-14T10:49:41.420Z,6.07
2023-04-14T10:52:36.133Z,5.18
2023-04-14T10:55:12.331Z,8.43
2023-04-14T10:57:43.391Z,5.50
2023-04-14T11:00:25.383Z,4.18
2023-04-14T11:03:00.993Z,4.22
2023-04-14T11:05:29.243Z,3.15
2023-04-14T11:08:02.454Z,6.05
2023-04-14T11:10:34.450Z,3.30
2023-04-14T11:13:04.557Z,5.05
2023-04-14T11:15:49.747Z,4.97
2023-04-14T11:18:22.211Z,5.72
2023-04-14T11:20:53.255Z,4.40
2023-04-14T11:23:28.470Z,6.03
2023-04-14T11:25:58.203Z,5.05
2023-04-14T11:28:30.441Z,6.00
2023-04-14T11:30:59.841Z,5.30
2023-04-14T11:33:34.066Z,5.97
2023-04-14T11:36:03.528Z,4.50
2023-04-14T11:38:32.488Z,3.80
2023-04-14T11:41:02.922Z,5.18
2023-04-14T11:43:32.057Z,5.38
2023-04-14T11:46:02.235Z,5.20
2023-04-14T11:48:32.406Z,5.68
2023-04-14T11:51:03.869Z,4.30
2023-04-14T11:53:33.253Z,6.97
2023-04-14T11:56:01.667Z,4.55
2023-04-14T11:58:30.412Z,5.50
2023-04-14T12:00:58.951Z,6.78
2023-04-14T12:03:29.363Z,6.63
2023-04-14T12:06:01.704Z,7.47
2023-04-14T12:08:31.810Z,7.18
2023-04-14T12:11:02.646Z,7.28
2023-04-14T12:13:31.200Z,5.47
2023-04-14T12:16:00.417Z,5.75
2023-04-14T12:18:29.879Z,6.80
2023-04-14T12:21:06.349Z,4.65
2023-04-14T12:23:37.803Z,5.80
2023-04-14T12:26:13.648Z,6.97
2023-04-14T12:28:42.825Z,8.15
2023-04-14T12:31:12.106Z,9.07
2023-04-14T12:33:41.119Z,5.30
2023-04-14T12:36:14.263Z,4.40
2023-04-14T12:38:42.953Z,5.40
2023-04-14T12:41:12.183Z,3.78
2023-04-14T12:43:41.871Z,5.90
2023-04-14T12:46:10.288Z,6.13
2023-04-14T12:48:44.479Z,6.00
2023-04-14T12:51:16.212Z,5.88
2023-04-14T12:53:45.493Z,5.30
2023-04-14T12:56:16.096Z,6.60
2023-04-14T12:58:47.015Z,6.78
2023-04-14T13:01:17.089Z,6.72
2023-04-14T13:03:47.705Z,6.97
2023-04-14T13:06:18.890Z,7.15
2023-04-14T13:08:48.775Z,6.95
2023-04-14T13:11:18.906Z,6.72
2023-04-14T13:13:47.906Z,5.78
2023-04-14T13:16:19.497Z,11.98
2023-04-14T13:18:50.185Z,9.93
2023-04-14T13:21:19.786Z,9.65
2023-04-14T13:23:48.233Z,10.35
2023-04-14T13:26:16.795Z,9.00
2023-04-14T13:28:45.052Z,6.40
2023-04-14T13:31:18.507Z,6.55
2023-04-14T13:33:46.948Z,8.63
2023-04-14T13:36:15.751Z,7.75
2023-04-14T13:38:45.364Z,8.85
2023-04-14T13:41:15.461Z,9.85
2023-04-14T13:43:43.974Z,7.55
2023-04-14T13:46:12.808Z,10.73
2023-04-14T13:48:41.595Z,11.77
2023-04-14T13:51:09.826Z,7.55
2023-04-14T13:53:40.227Z,12.50
2023-04-14T13:56:10.676Z,16.30
2023-04-14T13:58:39.190Z,10.13
2023-04-14T14:01:11.906Z,6.90
2023-04-14T14:03:42.512Z,8.35
2023-04-14T14:06:11.233Z,10.27
2023-04-14T14:08:41.257Z,8.80
2023-04-14T14:11:11.944Z,9.30
2023-04-14T14:13:40.956Z,7.88
2023-04-14T14:16:10.685Z,10.02
2023-04-14T14:18:39.002Z,9.18
2023-04-14T14:21:07.278Z,10.57
2023-04-14T14:23:35.855Z,8.20
2023-04-14T14:26:04.289Z,7.95
2023-04-14T14:28:34.137Z,10.00
2023-04-14T14:31:03.378Z,13.50
2023-04-14T14:33:32.769Z,14.30
2023-04-14T14:36:01.343Z,10.70
2023-04-14T14:38:29.942Z,10.15
2023-04-14T14:40:58.268Z,12.70
2023-04-14T14:43:26.566Z,9.70
2023-04-14T14:45:56.310Z,10.57
2023-04-14T14:48:25.534Z,11.43
2023-04-14T14:50:53.639Z,13.40
2023-04-14T14:53:21.776Z,7.10
2023-04-14T14:55:50.216Z,8.43
2023-04-14T14:58:18.447Z,7.88
2023-04-14T15:00:46.901Z,10.00
2023-04-14T15:03:17.225Z,7.25
2023-04-14T15:05:46.568Z,8.35
2023-04-14T15:08:15.080Z,5.63
2023-04-14T15:10:43.273Z,6.17
2023-04-14T15:13:12.576Z,7.43
2023-04-14T15:15:40.990Z,7.45
2023-04-14T15:18:10.815Z,8.73
2023-04-14T15:20:42.881Z,8.10
2023-04-14T15:23:11.533Z,11.00
2023-04-14T15:25:40.158Z,9.35
2023-04-14T15:28:08.426Z,5.60
2023-04-14T15:30:36.558Z,6.65
2023-04-14T15:33:05.333Z,5.15
2023-04-14T15:35:36.915Z,6.00
2023-04-14T15:38:07.528Z,5.68
2023-04-14T15:40:36.442Z,5.13
2023-04-14T15:43:04.738Z,6.18
2023-04-14T15:45:43.250Z,5.70
2023-04-14T15:48:11.778Z,6.55
2023-04-14T15:50:44.920Z,5.32
2023-04-14T15:53:15.661Z,6.95
2023-04-14T15:55:44.578Z,6.60
2023-04-14T15:58:12.859Z,6.07
2023-04-14T16:01:07.853Z,8.90
2023-04-14T16:03:36.975Z,9.05
2023-04-14T16:06:07.253Z,7.07
2023-04-14T16:08:37.382Z,7.00
2023-04-14T16:11:05.775Z,6.20
2023-04-14T16:13:34.068Z,9.48
2023-04-14T16:16:02.848Z,6.18
2023-04-14T16:18:32.563Z,9.30
2023-04-14T16:21:01.257Z,9.40
2023-04-14T16:23:29.758Z,10.85
2023-04-14T16:25:59.996Z,6.28
2023-04-14T16:28:28.469Z,6.63
2023-04-14T16:31:00.429Z,8.43
2023-04-14T16:33:32.067Z,6.13
2023-04-14T16:36:04.219Z,6.60
2023-04-14T16:38:32.609Z,6.57
2023-04-14T16:41:03.539Z,7.85
2023-04-14T16:43:32.185Z,10.38
2023-04-14T16:46:04.411Z,6.68
2023-04-14T16:48:33.598Z,5.90
2023-04-14T16:51:05.838Z,7.13
2023-04-14T16:53:35.135Z,8.15
2023-04-14T16:56:06.380Z,7.82
2023-04-14T16:58:34.933Z,6.32
2023-04-14T17:01:03.452Z,8.60
2023-04-14T17:03:32.050Z,7.80
2023-04-14T17:06:01.191Z,10.10
2023-04-14T17:08:29.669Z,9.68
2023-04-14T17:10:58.202Z,7.15
2023-04-14T17:13:29.071Z,8.23
2023-04-14T17:16:07.671Z,7.18
2023-04-14T17:18:38.708Z,8.82
2023-04-14T17:21:07.781Z,7.15
2023-04-14T17:24:05.116Z,9.00
2023-04-14T17:26:33.993Z,7.88
2023-04-14T17:29:04.364Z,13.10
2023-04-14T17:31:35.429Z,8.65
2023-04-14T17:34:10.881Z,11.70
2023-04-14T17:36:41.003Z,9.07
2023-04-14T17:39:10.832Z,11.05
2023-04-14T17:41:39.448Z,10.93
2023-04-14T17:44:09.143Z,6.90
2023-04-14T17:46:37.669Z,10.48
2023-04-14T17:49:06.126Z,8.00
2023-04-14T17:51:34.683Z,5.65
2023-04-14T17:54:04.749Z,6.00
2023-04-14T17:56:33.317Z,7.70
2023-04-14T17:59:02.080Z,7.93
2023-04-14T18:01:32.161Z,7.65
2023-04-14T18:04:01.656Z,7.10
2023-04-14T18:06:34.572Z,6.55
2023-04-14T18:09:03.100Z,6.82
2023-04-14T18:11:31.920Z,6.82
2023-04-14T18:14:00.708Z,10.02
2023-04-14T18:16:30.155Z,7.43
2023-04-14T18:19:00.614Z,7.53
2023-04-14T18:21:29.742Z,6.72
2023-04-14T18:26:29.026Z,6.05
2023-04-14T18:28:57.420Z,7.85
2023-04-14T18:31:25.773Z,6.47
2023-04-14T18:33:54.035Z,5.85
2023-04-14T18:36:24.311Z,7.32
2023-04-14T18:38:52.764Z,8.15
2023-04-14T18:41:21.177Z,6.55
2023-04-14T18:43:49.864Z,6.00
2023-04-14T18:46:18.216Z,5.85
2023-04-14T18:48:46.365Z,7.40
2023-04-14T18:51:16.255Z,11.98
2023-04-14T18:53:46.952Z,7.70
2023-04-14T18:56:15.547Z,6.68
2023-04-14T18:58:43.931Z,8.75
2023-04-14T19:01:12.633Z,9.57
2023-04-14T19:03:41.274Z,7.65
2023-04-14T19:06:10.008Z,8.15
2023-04-14T19:08:38.445Z,8.00
2023-04-14T19:11:08.665Z,8.70
2023-04-14T19:13:39.274Z,8.68
2023-04-14T19:16:17.824Z,8.38
2023-04-14T19:18:47.744Z,7.15
2023-04-14T19:21:16.310Z,7.57
2023-04-14T19:23:45.814Z,6.65
2023-04-14T19:26:18.049Z,8.52
2023-04-14T19:28:46.650Z,8.00
2023-04-14T19:31:15.995Z,7.15
2023-04-14T19:33:45.472Z,7.60
2023-04-14T19:36:14.434Z,6.35
2023-04-14T19:38:42.923Z,6.00
2023-04-14T19:41:11.179Z,6.72
2023-04-14T19:43:42.378Z,7.50
2023-04-14T19:46:13.334Z,4.97
2023-04-14T19:48:41.745Z,6.38
2023-04-14T19:51:10.146Z,5.35
2023-04-14T19:53:38.724Z,7.07
2023-04-14T19:56:07.349Z,5.18
2023-04-14T19:58:36.477Z,9.40
2023-04-14T20:01:06.779Z,6.40
2023-04-14T20:03:35.249Z,5.65
2023-04-14T20:06:04.445Z,6.60
2023-04-14T20:08:33.279Z,4.00
2023-04-14T20:11:01.690Z,6.28
2023-04-14T20:13:32.280Z,5.57
2023-04-14T20:16:03.277Z,5.82
2023-04-14T20:18:34.933Z,4.55
2023-04-14T20:21:05.040Z,4.80
2023-04-14T20:23:33.339Z,5.43
2023-04-14T20:26:03.553Z,5.85
2023-04-14T20:28:31.978Z,7.53
2023-04-14T20:31:00.769Z,4.82
2023-04-14T20:33:29.589Z,6.05
2023-04-14T20:36:01.959Z,5.60
2023-04-14T20:38:30.612Z,5.00
2023-04-14T20:40:59.367Z,5.28
2023-04-14T20:43:34.028Z,5.35
2023-04-14T20:46:04.269Z,5.32
2023-04-14T20:48:33.029Z,5.97
2023-04-14T20:51:04.254Z,3.83
2023-04-14T20:53:32.697Z,2.88
2023-04-14T20:56:01.171Z,3.72
2023-04-14T20:58:30.021Z,3.00
2023-04-14T21:00:58.516Z,3.00
2023-04-14T21:03:27.923Z,3.75
2023-04-14T21:05:56.485Z,3.25
2023-04-14T21:08:27.386Z,2.90
2023-04-14T21:11:15.869Z,1.90
2023-04-14T21:15:44.117Z,2.92
2023-04-14T21:16:32.814Z,2.55
2023-04-14T21:19:02.576Z,2.25
2023-04-14T21:21:40.624Z,2.05
2023-04-14T21:24:10.596Z,2.28
2023-04-14T21:26:38.695Z,3.03
2023-04-14T21:29:06.863Z,2.90
2023-04-14T21:31:35.824Z,2.83
2023-04-14T21:34:04.566Z,2.00
2023-04-14T21:36:33.248Z,2.40
2023-04-14T21:39:01.757Z,1.90
2023-04-14T21:41:32.803Z,2.92
2023-04-14T21:44:01.728Z,2.55
2023-04-14T21:46:30.671Z,4.50
2023-04-14T21:48:59.284Z,2.53
2023-04-14T21:51:27.607Z,2.67
2023-04-14T21:53:55.997Z,2.80
2023-04-14T21:56:24.705Z,2.90
2023-04-14T21:58:54.580Z,2.38
2023-04-14T22:01:23.781Z,2.35
2023-04-14T22:03:52.372Z,2.70
2023-04-14T22:06:21.660Z,2.60
2023-04-14T22:08:50.294Z,2.40
2023-04-14T22:11:20.790Z,3.22
2023-04-14T22:13:50.479Z,2.55
2023-04-14T22:16:20.232Z,2.30
2023-04-14T22:18:49.375Z,2.80
2023-04-14T22:21:18.084Z,3.28
2023-04-14T22:23:46.810Z,2.85
2023-04-14T22:26:15.465Z,3.35
2023-04-14T22:28:43.595Z,2.92
2023-04-14T22:31:11.812Z,2.53
2023-04-14T22:33:41.977Z,3.25
2023-04-14T22:36:10.270Z,2.03
2023-04-14T22:38:38.636Z,2.28
2023-04-14T22:41:07.906Z,2.42
2023-04-14T22:43:36.325Z,4.20
2023-04-14T22:46:04.711Z,2.53
2023-04-14T22:48:33.372Z,2.20
2023-04-14T22:51:03.239Z,2.90
2023-04-14T22:53:31.526Z,2.33
2023-04-14T22:55:59.941Z,2.22
2023-04-14T22:58:32.083Z,2.38
2023-04-14T23:01:04.498Z,3.03
2023-04-14T23:03:38.005Z,2.97
2023-04-14T23:06:08.325Z,4.68
2023-04-14T23:08:36.674Z,2.70
2023-04-14T23:11:05.263Z,3.15
2023-04-14T23:13:33.524Z,2.40
2023-04-14T23:16:01.748Z,4.13
2023-04-14T23:18:30.004Z,2.30
2023-04-14T23:20:58.860Z,2.63
2023-04-14T23:23:28.906Z,2.72
2023-04-14T23:25:57.770Z,2.85
2023-04-14T23:28:26.111Z,3.30
2023-04-14T23:30:54.261Z,3.85
2023-04-14T23:33:22.647Z,3.28
2023-04-14T23:35:51.172Z,3.15
2023-04-14T23:38:19.604Z,3.42
2023-04-14T23:40:49.367Z,2.85
2023-04-14T23:43:17.862Z,3.28
2023-04-14T23:45:46.344Z,2.55
2023-04-14T23:48:14.472Z,2.60
2023-04-14T23:50:58.682Z,3.10
2023-04-14T23:53:30.527Z,1.90
2023-04-14T23:56:00.375Z,2.17
2023-04-14T23:58:30.213Z,2.00
